createdAt,value
2019-05-20T00:00:17.990Z,36.90
2019-05-20T00:05:42.372Z,36.53
2019-05-20T00:11:06.602Z,34.93
2019-05-20T00:16:31.283Z,37.93
2019-05-20T00:21:55.641Z,37.73
2019-05-20T00:27:20.597Z,34.93
2019-05-20T00:32:44.259Z,34.47
2019-05-20T00:38:08.641Z,37.47
2019-05-20T00:43:33.434Z,35.17
2019-05-20T00:48:57.555Z,44.17
2019-05-20T00:54:21.854Z,39.63
2019-05-20T00:59:46.111Z,37.93
2019-05-20T01:05:10.053Z,38.33
2019-05-20T01:10:34.219Z,38.77
2019-05-20T01:15:57.951Z,39.83
2019-05-20T01:21:22.679Z,37.63
2019-05-20T01:26:46.238Z,36.13
2019-05-20T01:32:10.919Z,35.97
2019-05-20T01:37:36.079Z,40.80
2019-05-20T01:43:01.089Z,36.27
2019-05-20T01:48:25.790Z,33.00
2019-05-20T01:53:50.104Z,38.23
2019-05-20T01:59:14.699Z,35.30
2019-05-20T02:04:39.591Z,41.57
2019-05-20T02:10:03.839Z,39.80
2019-05-20T02:15:46.072Z,39.77
2019-05-20T02:21:10.979Z,41.37
2019-05-20T02:26:36.122Z,37.50
2019-05-20T02:32:00.621Z,34.57
2019-05-20T02:37:24.336Z,38.47
2019-05-20T02:42:49.478Z,39.87
2019-05-20T02:48:13.553Z,39.40
2019-05-20T02:53:38.264Z,37.53
2019-05-20T02:59:02.624Z,34.17
2019-05-20T03:04:26.514Z,37.57
2019-05-20T03:09:51.494Z,37.03
2019-05-20T03:15:16.292Z,38.50
2019-05-20T03:20:41.296Z,41.83
2019-05-20T03:26:06.049Z,39.13
2019-05-20T03:31:29.734Z,38.43
2019-05-20T03:36:53.423Z,32.57
2019-05-20T03:42:17.399Z,35.17
2019-05-20T03:47:42.408Z,35.20
2019-05-20T03:53:06.794Z,34.03
2019-05-20T03:58:30.902Z,32.17
2019-05-20T04:03:55.447Z,34.53
2019-05-20T04:09:19.182Z,31.03
2019-05-20T04:14:43.603Z,29.00
2019-05-20T04:20:08.426Z,25.80
2019-05-20T04:25:32.580Z,25.70
2019-05-20T04:30:56.461Z,23.30
2019-05-20T04:36:20.164Z,25.10
2019-05-20T04:41:44.885Z,25.85
2019-05-20T04:47:09.727Z,28.12
2019-05-20T04:52:34.327Z,24.35
2019-05-20T04:57:58.657Z,24.45
2019-05-20T05:03:23.772Z,25.40
2019-05-20T05:08:48.606Z,26.97
2019-05-20T05:14:13.233Z,31.25
2019-05-20T05:19:37.809Z,24.72
2019-05-20T05:25:02.583Z,22.13
2019-05-20T05:30:27.068Z,22.65
2019-05-20T05:35:53.655Z,20.97
2019-05-20T05:41:18.180Z,21.65
2019-05-20T05:46:41.963Z,21.80
2019-05-20T05:52:06.600Z,19.77
2019-05-20T05:57:31.528Z,21.52
2019-05-20T06:02:56.244Z,22.70
2019-05-20T06:08:21.148Z,21.60
2019-05-20T06:13:45.114Z,20.40
2019-05-20T06:19:08.791Z,19.12
2019-05-20T06:24:32.767Z,21.97
2019-05-20T06:29:57.774Z,24.20
2019-05-20T06:35:22.553Z,18.82
2019-05-20T06:40:51.476Z,19.85
2019-05-20T06:46:15.947Z,23.07
2019-05-20T06:51:41.216Z,17.62
2019-05-20T06:57:05.802Z,19.05
2019-05-20T07:02:30.741Z,17.27
2019-05-20T07:07:54.756Z,15.63
2019-05-20T07:13:19.136Z,20.72
2019-05-20T07:18:42.941Z,18.67
2019-05-20T07:24:07.683Z,13.85
2019-05-20T07:29:31.622Z,18.62
2019-05-20T07:34:55.546Z,14.23
2019-05-20T07:40:30.582Z,15.70
2019-05-20T07:45:55.369Z,16.70
2019-05-20T07:51:20.900Z,12.07
2019-05-20T07:56:47.617Z,18.20
2019-05-20T08:02:12.430Z,12.47
2019-05-20T08:07:51.217Z,14.98
2019-05-20T08:13:02.794Z,15.45
2019-05-20T08:18:26.722Z,13.13
2019-05-20T08:23:50.618Z,17.55
2019-05-20T08:29:15.325Z,16.87
2019-05-20T08:34:39.804Z,12.60
2019-05-20T08:40:05.561Z,15.28
2019-05-20T08:45:29.730Z,11.85
2019-05-20T08:50:53.984Z,11.97
2019-05-20T08:56:18.810Z,11.35
2019-05-20T09:01:43.205Z,12.23
2019-05-20T09:07:07.740Z,11.20
2019-05-20T09:12:31.653Z,14.23
2019-05-20T09:17:55.748Z,12.23
2019-05-20T09:23:19.628Z,10.25
2019-05-20T09:28:43.599Z,10.45
2019-05-20T09:34:08.398Z,12.20
2019-05-20T09:39:32.945Z,10.98
2019-05-20T09:45:01.774Z,10.93
2019-05-20T09:50:23.362Z,10.75
2019-05-20T09:55:47.018Z,11.73
2019-05-20T10:01:11.222Z,12.13
2019-05-20T10:06:35.115Z,11.30
2019-05-20T10:11:59.784Z,11.48
2019-05-20T10:17:23.878Z,9.48
2019-05-20T10:22:48.569Z,10.35
2019-05-20T10:28:12.972Z,21.60
2019-05-20T10:33:37.490Z,13.98
2019-05-20T10:39:01.930Z,11.63
2019-05-20T10:44:27.539Z,11.78
2019-05-20T10:49:52.107Z,10.63
2019-05-20T10:55:16.574Z,8.95
2019-05-20T11:00:40.298Z,12.40
2019-05-20T11:06:05.063Z,16.52
2019-05-20T11:11:29.981Z,14.28
2019-05-20T11:16:54.378Z,12.05
2019-05-20T11:22:18.481Z,11.10
2019-05-20T11:27:43.516Z,13.13
2019-05-20T11:33:08.358Z,10.90
2019-05-20T11:38:33.286Z,10.20
2019-05-20T11:43:57.606Z,12.45
2019-05-20T11:49:21.428Z,10.60
2019-05-20T11:54:46.226Z,14.73
2019-05-20T12:00:12.033Z,14.93
2019-05-20T12:05:36.578Z,13.15
2019-05-20T12:11:00.973Z,11.97
2019-05-20T12:16:25.488Z,9.98
2019-05-20T12:21:49.900Z,13.43
2019-05-20T12:27:13.829Z,12.80
2019-05-20T12:32:38.528Z,11.45
2019-05-20T12:38:03.138Z,11.97
2019-05-20T12:43:27.959Z,13.28
2019-05-20T12:48:52.114Z,10.58
2019-05-20T12:54:16.250Z,14.60
2019-05-20T12:59:39.889Z,12.80
2019-05-20T13:05:06.002Z,13.62
2019-05-20T13:10:32.256Z,12.60
2019-05-20T13:15:56.250Z,13.28
2019-05-20T13:21:20.050Z,17.62
2019-05-20T13:26:44.844Z,14.28
2019-05-20T13:32:08.908Z,11.73
2019-05-20T13:37:33.818Z,17.60
2019-05-20T13:42:57.735Z,15.43
2019-05-20T13:48:22.422Z,15.55
2019-05-20T13:53:46.940Z,19.95
2019-05-20T13:59:11.847Z,18.07
2019-05-20T14:04:36.549Z,17.30
2019-05-20T14:10:01.454Z,13.58
2019-05-20T14:15:26.821Z,20.88
2019-05-20T14:20:50.407Z,18.55
2019-05-20T14:26:14.952Z,17.07
2019-05-20T14:31:39.272Z,21.25
2019-05-20T14:37:03.098Z,18.85
2019-05-20T14:42:26.733Z,17.57
2019-05-20T14:47:51.388Z,22.10
2019-05-20T14:53:15.231Z,25.70
2019-05-20T14:58:38.793Z,32.48
2019-05-20T15:04:03.399Z,34.38
2019-05-20T15:09:27.338Z,27.30
2019-05-20T15:14:51.117Z,69.33
2019-05-20T15:20:15.514Z,61.85
2019-05-20T15:25:39.379Z,64.95
2019-05-20T15:31:04.056Z,62.70
2019-05-20T15:36:28.729Z,14.63
2019-05-20T15:41:53.109Z,10.85
2019-05-20T15:47:18.890Z,11.97
2019-05-20T15:52:44.270Z,11.10
2019-05-20T15:58:07.866Z,12.30
2019-05-20T16:03:31.966Z,11.45
2019-05-20T16:08:57.093Z,11.78
2019-05-20T16:14:22.020Z,17.40
2019-05-20T16:19:47.136Z,11.63
2019-05-20T16:25:12.037Z,14.33
2019-05-20T16:30:36.564Z,14.03
2019-05-20T16:36:01.048Z,16.10
2019-05-20T16:41:24.973Z,14.15
2019-05-20T16:46:48.646Z,14.00
2019-05-20T16:52:12.890Z,13.68
2019-05-20T16:57:37.742Z,16.87
2019-05-20T17:03:02.481Z,20.05
2019-05-20T17:08:26.462Z,18.15
2019-05-20T17:13:51.565Z,20.57
2019-05-20T17:19:16.475Z,19.30
2019-05-20T17:24:41.194Z,23.10
2019-05-20T17:30:06.421Z,27.10
2019-05-20T17:35:30.990Z,22.75
2019-05-20T17:40:55.119Z,31.35
2019-05-20T17:46:19.225Z,28.73
2019-05-20T17:51:44.208Z,23.65
2019-05-20T17:57:08.966Z,28.85
2019-05-20T18:02:34.075Z,62.10
2019-05-20T18:22:11.808Z,41.23
2019-05-20T18:27:35.680Z,50.00
2019-05-20T18:32:59.516Z,41.13
2019-05-20T18:38:23.565Z,38.55
2019-05-20T18:43:48.301Z,36.77
2019-05-20T18:49:12.742Z,45.15
2019-05-20T18:54:36.529Z,39.58
2019-05-20T19:00:01.106Z,39.78
2019-05-20T19:05:25.923Z,36.00
2019-05-20T19:10:49.516Z,37.25
2019-05-20T19:16:13.745Z,24.92
2019-05-20T19:21:38.297Z,22.40
2019-05-20T19:27:04.737Z,20.70
2019-05-20T19:32:29.627Z,24.70
2019-05-20T19:37:54.054Z,30.08
2019-05-20T19:43:17.847Z,27.58
2019-05-20T19:48:41.465Z,26.75
2019-05-20T19:54:05.649Z,37.17
2019-05-20T19:59:30.319Z,35.50
2019-05-20T20:04:56.126Z,40.52
2019-05-20T20:10:20.497Z,41.87
2019-05-20T20:15:44.476Z,47.45
2019-05-20T20:21:09.204Z,44.55
2019-05-20T20:26:34.340Z,47.27
2019-05-20T20:31:58.852Z,42.70
2019-05-20T20:37:23.919Z,39.53
2019-05-20T20:42:49.062Z,43.68
2019-05-20T20:48:13.492Z,30.65
2019-05-20T20:53:37.420Z,32.40
2019-05-20T20:59:02.126Z,26.97
2019-05-20T21:04:26.438Z,23.07
2019-05-20T21:09:51.066Z,31.40
2019-05-20T21:15:15.008Z,26.00
2019-05-20T21:20:39.380Z,24.27
2019-05-20T21:26:04.151Z,27.33
2019-05-20T21:31:28.654Z,31.57
2019-05-20T21:36:53.016Z,35.20
2019-05-20T21:42:18.268Z,36.77
2019-05-20T21:47:44.820Z,44.90
2019-05-20T21:53:09.606Z,40.67
2019-05-20T21:58:34.142Z,50.37
2019-05-20T22:03:58.138Z,53.63
2019-05-20T22:09:22.471Z,61.40
2019-05-20T22:14:47.229Z,59.23
2019-05-20T22:20:11.770Z,97.30
2019-05-20T22:25:37.285Z,51.43
2019-05-20T22:31:02.228Z,82.70
2019-05-20T22:36:26.252Z,66.53
2019-05-20T22:41:51.113Z,127.27
2019-05-20T22:47:16.042Z,52.77
2019-05-20T22:52:40.153Z,93.20
2019-05-20T22:58:04.875Z,97.23
2019-05-20T23:03:29.601Z,103.73
2019-05-20T23:08:54.630Z,98.77
2019-05-20T23:14:19.560Z,77.93
2019-05-20T23:19:44.263Z,75.93
2019-05-20T23:25:07.831Z,86.20
2019-05-20T23:30:32.399Z,70.60
2019-05-20T23:35:56.383Z,105.23
2019-05-20T23:41:21.089Z,127.37
2019-05-20T23:46:45.762Z,102.10
2019-05-20T23:52:09.684Z,92.90
2019-05-20T23:57:33.435Z,78.07
